ARG1019 SAZM-SABE
Flight info
| Callsign | ARG1019 |
|---|---|
| Flight time | 0h 45m |
| Altitude | 25000 |
| Route | PULPA1G PULPA DCT TENIL TENIL8Q |
| Aircraft | B738/M-SDE2E3FGHIRWXY/LB1 |
Departure
| Time | 2026-04-24 18:59 |
|---|---|
| Airport | Ástor Piazzola International Airport (SAZM) |
Arrival
| Time | 2026-04-24 19:45 |
|---|---|
| Airport | Aeroparque Jorge Newbery (SABE) |
| Time | Latitude | Longitude | Altitude | Speed | Heading |
|---|---|---|---|---|---|
| 2026-04-24 18:55 | -37.93394 | -57.58084 | 47 ft | 0 kts | 357° |
| 2026-04-24 18:56 | -37.93387 | -57.58080 | 47 ft | 6 kts | 31° |
| 2026-04-24 18:56 | -37.93370 | -57.58028 | 47 ft | 7 kts | 86° |
| 2026-04-24 18:56 | -37.93391 | -57.57950 | 47 ft | 18 kts | 116° |
| 2026-04-24 18:56 | -37.93463 | -57.57786 | 45 ft | 23 kts | 118° |
| 2026-04-24 18:57 | -37.93543 | -57.57598 | 47 ft | 25 kts | 120° |
| 2026-04-24 18:57 | -37.93633 | -57.57398 | 44 ft | 26 kts | 118° |
| 2026-04-24 18:57 | -37.93721 | -57.57203 | 45 ft | 25 kts | 120° |
| 2026-04-24 18:57 | -37.93806 | -57.57008 | 47 ft | 28 kts | 120° |
| 2026-04-24 18:58 | -37.93906 | -57.56782 | 45 ft | 30 kts | 120° |
| 2026-04-24 18:58 | -37.93993 | -57.56587 | 46 ft | 22 kts | 118° |
| 2026-04-24 18:58 | -37.94012 | -57.56416 | 44 ft | 20 kts | 58° |
| 2026-04-24 18:58 | -37.93935 | -57.56337 | 43 ft | 10 kts | 330° |
| 2026-04-24 18:59 | -37.93894 | -57.56396 | 43 ft | 14 kts | 306° |
| 2026-04-24 18:59 | -37.93689 | -57.56801 | 45 ft | 95 kts | 303° |
| 2026-04-24 18:59 | -37.93206 | -57.57749 | 89 ft | 157 kts | 303° |
| 2026-04-24 18:59 | -37.92610 | -57.58981 | 800 ft | 171 kts | 302° |
| 2026-04-24 19:00 | -37.91992 | -57.60395 | 1471 ft | 195 kts | 298° |
| 2026-04-24 19:00 | -37.91382 | -57.61985 | 2104 ft | 206 kts | 295° |
| 2026-04-24 19:00 | -37.90631 | -57.63617 | 2417 ft | 228 kts | 302° |
| 2026-04-24 19:00 | -37.89747 | -57.65408 | 2817 ft | 247 kts | 301° |
| 2026-04-24 19:01 | -37.88840 | -57.67266 | 3743 ft | 246 kts | 301° |
| 2026-04-24 19:01 | -37.87931 | -57.69119 | 4637 ft | 248 kts | 301° |
| 2026-04-24 19:01 | -37.87024 | -57.70963 | 5576 ft | 246 kts | 301° |
| 2026-04-24 19:01 | -37.86081 | -57.72778 | 6430 ft | 248 kts | 309° |
| 2026-04-24 19:02 | -37.84687 | -57.74107 | 7181 ft | 257 kts | 331° |
| 2026-04-24 19:02 | -37.82936 | -57.74723 | 7890 ft | 270 kts | 352° |
| 2026-04-24 19:02 | -37.81023 | -57.74688 | 8620 ft | 278 kts | 358° |
| 2026-04-24 19:02 | -37.79072 | -57.74525 | 9348 ft | 283 kts | 359° |
| 2026-04-24 19:03 | -37.77087 | -57.74337 | 9888 ft | 289 kts | 359° |
| 2026-04-24 19:03 | -37.75078 | -57.74147 | 9983 ft | 290 kts | 359° |
| 2026-04-24 19:03 | -37.73064 | -57.73966 | 10043 ft | 291 kts | 359° |
| 2026-04-24 19:03 | -37.71012 | -57.73803 | 10179 ft | 311 kts | 359° |
| 2026-04-24 19:04 | -37.68776 | -57.73634 | 10356 ft | 333 kts | 359° |
| 2026-04-24 19:04 | -37.66390 | -57.73453 | 10535 ft | 354 kts | 359° |
| 2026-04-24 19:04 | -37.63884 | -57.73256 | 10913 ft | 365 kts | 359° |
| 2026-04-24 19:04 | -37.61333 | -57.73049 | 11555 ft | 369 kts | 359° |
| 2026-04-24 19:05 | -37.58767 | -57.72838 | 12292 ft | 370 kts | 359° |
| 2026-04-24 19:05 | -37.56194 | -57.72627 | 12993 ft | 372 kts | 359° |
| 2026-04-24 19:05 | -37.53593 | -57.72416 | 13681 ft | 376 kts | 359° |
| 2026-04-24 19:05 | -37.50968 | -57.72205 | 14332 ft | 379 kts | 359° |
| 2026-04-24 19:06 | -37.48320 | -57.71992 | 14981 ft | 383 kts | 359° |
| 2026-04-24 19:06 | -37.45649 | -57.71778 | 15634 ft | 387 kts | 359° |
| 2026-04-24 19:06 | -37.42951 | -57.71563 | 16282 ft | 390 kts | 359° |
| 2026-04-24 19:06 | -37.40226 | -57.71345 | 16899 ft | 394 kts | 359° |
| 2026-04-24 19:07 | -37.37468 | -57.71124 | 17540 ft | 398 kts | 359° |
| 2026-04-24 19:07 | -37.34692 | -57.70903 | 18169 ft | 402 kts | 359° |
| 2026-04-24 19:07 | -37.32836 | -57.70755 | 18540 ft | 404 kts | 359° |
| 2026-04-24 19:07 | -37.29061 | -57.70453 | 19271 ft | 408 kts | 359° |
| 2026-04-24 19:08 | -37.26214 | -57.70226 | 19833 ft | 411 kts | 359° |
| 2026-04-24 19:08 | -37.23377 | -57.69999 | 20361 ft | 414 kts | 359° |
| 2026-04-24 19:08 | -37.20495 | -57.69770 | 20882 ft | 417 kts | 359° |
| 2026-04-24 19:08 | -37.17579 | -57.69537 | 21389 ft | 421 kts | 359° |
| 2026-04-24 19:09 | -37.14651 | -57.69305 | 21895 ft | 423 kts | 359° |
| 2026-04-24 19:09 | -37.11697 | -57.69070 | 22389 ft | 426 kts | 359° |
| 2026-04-24 19:09 | -37.08723 | -57.68833 | 22863 ft | 430 kts | 359° |
| 2026-04-24 19:09 | -37.05731 | -57.68595 | 23315 ft | 433 kts | 359° |
| 2026-04-24 19:10 | -37.02710 | -57.68356 | 23757 ft | 436 kts | 359° |
| 2026-04-24 19:10 | -36.99672 | -57.68135 | 24147 ft | 437 kts | 356° |
| 2026-04-24 19:10 | -36.96634 | -57.68252 | 24527 ft | 436 kts | 351° |
| 2026-04-24 19:10 | -36.93610 | -57.68573 | 24902 ft | 437 kts | 349° |
| 2026-04-24 19:11 | -36.90564 | -57.68940 | 25027 ft | 443 kts | 349° |
| 2026-04-24 19:11 | -36.87482 | -57.69316 | 25032 ft | 444 kts | 349° |
| 2026-04-24 19:11 | -36.84413 | -57.69679 | 25030 ft | 442 kts | 349° |
| 2026-04-24 19:11 | -36.81389 | -57.70023 | 25037 ft | 442 kts | 350° |
| 2026-04-24 19:12 | -36.78329 | -57.70361 | 25046 ft | 442 kts | 350° |
| 2026-04-24 19:12 | -36.75263 | -57.70693 | 25043 ft | 442 kts | 350° |
| 2026-04-24 19:12 | -36.72189 | -57.71021 | 25044 ft | 442 kts | 350° |
| 2026-04-24 19:12 | -36.69118 | -57.71348 | 25041 ft | 442 kts | 350° |
| 2026-04-24 19:13 | -36.67086 | -57.71563 | 25042 ft | 442 kts | 350° |
| 2026-04-24 19:13 | -36.62980 | -57.71998 | 25042 ft | 442 kts | 350° |
| 2026-04-24 19:13 | -36.59911 | -57.72323 | 25041 ft | 442 kts | 350° |
| 2026-04-24 19:13 | -36.56848 | -57.72648 | 25044 ft | 442 kts | 350° |
| 2026-04-24 19:14 | -36.53776 | -57.72973 | 25047 ft | 442 kts | 350° |
| 2026-04-24 19:14 | -36.50709 | -57.73298 | 25046 ft | 442 kts | 350° |
| 2026-04-24 19:14 | -36.47643 | -57.73622 | 25045 ft | 442 kts | 350° |
| 2026-04-24 19:14 | -36.44574 | -57.73947 | 25046 ft | 442 kts | 350° |
| 2026-04-24 19:15 | -36.41545 | -57.74266 | 25047 ft | 442 kts | 350° |
| 2026-04-24 19:15 | -36.38478 | -57.74590 | 25048 ft | 442 kts | 350° |
| 2026-04-24 19:15 | -36.35408 | -57.74914 | 25046 ft | 442 kts | 350° |
| 2026-04-24 19:15 | -36.32342 | -57.75237 | 25046 ft | 442 kts | 350° |
| 2026-04-24 19:16 | -36.26215 | -57.75883 | 25051 ft | 442 kts | 350° |
| 2026-04-24 19:16 | -36.23150 | -57.76205 | 25048 ft | 442 kts | 350° |
| 2026-04-24 19:16 | -36.20084 | -57.76527 | 25051 ft | 442 kts | 350° |
| 2026-04-24 19:17 | -36.17016 | -57.76849 | 25057 ft | 442 kts | 350° |
| 2026-04-24 19:17 | -36.13944 | -57.77172 | 25043 ft | 442 kts | 350° |
| 2026-04-24 19:17 | -36.10879 | -57.77493 | 25050 ft | 442 kts | 350° |
| 2026-04-24 19:17 | -36.07814 | -57.77814 | 25052 ft | 442 kts | 350° |
| 2026-04-24 19:18 | -36.04748 | -57.78135 | 25049 ft | 442 kts | 350° |
| 2026-04-24 19:18 | -36.01715 | -57.78452 | 25049 ft | 442 kts | 350° |
| 2026-04-24 19:18 | -35.98649 | -57.78772 | 25045 ft | 442 kts | 350° |
| 2026-04-24 19:18 | -35.95579 | -57.79093 | 25050 ft | 442 kts | 350° |
| 2026-04-24 19:19 | -35.92511 | -57.79413 | 25043 ft | 442 kts | 350° |
| 2026-04-24 19:19 | -35.89441 | -57.79733 | 25053 ft | 442 kts | 350° |
| 2026-04-24 19:19 | -35.86368 | -57.80053 | 25048 ft | 442 kts | 350° |
| 2026-04-24 19:19 | -35.83299 | -57.80373 | 25046 ft | 442 kts | 350° |
| 2026-04-24 19:20 | -35.80230 | -57.80692 | 25044 ft | 442 kts | 350° |
| 2026-04-24 19:20 | -35.77164 | -57.81011 | 25051 ft | 442 kts | 350° |
| 2026-04-24 19:20 | -35.74094 | -57.81329 | 25051 ft | 442 kts | 350° |
| 2026-04-24 19:20 | -35.71023 | -57.81648 | 25045 ft | 443 kts | 350° |
| 2026-04-24 19:21 | -35.67989 | -57.81963 | 25047 ft | 443 kts | 350° |
| 2026-04-24 19:21 | -35.64916 | -57.82281 | 25047 ft | 443 kts | 350° |
| 2026-04-24 19:21 | -35.61839 | -57.82600 | 25047 ft | 443 kts | 350° |
| 2026-04-24 19:21 | -35.58764 | -57.82918 | 25048 ft | 443 kts | 350° |
| 2026-04-24 19:22 | -35.56732 | -57.83128 | 25050 ft | 443 kts | 350° |
| 2026-04-24 19:22 | -35.52623 | -57.83557 | 25049 ft | 443 kts | 350° |
| 2026-04-24 19:22 | -35.49551 | -57.83901 | 25051 ft | 443 kts | 349° |
| 2026-04-24 19:22 | -35.46486 | -57.84255 | 25051 ft | 443 kts | 349° |
| 2026-04-24 19:23 | -35.43420 | -57.84612 | 25051 ft | 443 kts | 349° |
| 2026-04-24 19:23 | -35.40349 | -57.84968 | 25052 ft | 443 kts | 349° |
| 2026-04-24 19:23 | -35.37287 | -57.85321 | 25048 ft | 443 kts | 349° |
| 2026-04-24 19:23 | -35.34215 | -57.85673 | 25051 ft | 443 kts | 349° |
| 2026-04-24 19:24 | -35.31192 | -57.86018 | 25049 ft | 442 kts | 349° |
| 2026-04-24 19:24 | -35.28129 | -57.86367 | 25051 ft | 442 kts | 349° |
| 2026-04-24 19:24 | -35.25060 | -57.86717 | 25050 ft | 442 kts | 349° |
| 2026-04-24 19:24 | -35.21996 | -57.87065 | 25050 ft | 442 kts | 349° |
| 2026-04-24 19:25 | -35.18928 | -57.87414 | 25049 ft | 442 kts | 349° |
| 2026-04-24 19:25 | -35.15892 | -57.87757 | 25035 ft | 433 kts | 349° |
| 2026-04-24 19:25 | -35.12920 | -57.88092 | 25040 ft | 427 kts | 349° |
| 2026-04-24 19:25 | -35.09966 | -57.88428 | 25045 ft | 426 kts | 349° |
| 2026-04-24 19:26 | -35.07004 | -57.88766 | 25053 ft | 427 kts | 349° |
| 2026-04-24 19:26 | -35.04036 | -57.89117 | 24718 ft | 428 kts | 347° |
| 2026-04-24 19:26 | -35.01238 | -57.90091 | 24234 ft | 411 kts | 329° |
| 2026-04-24 19:26 | -34.98905 | -57.91990 | 23729 ft | 398 kts | 314° |
| 2026-04-24 19:27 | -34.97070 | -57.94479 | 23047 ft | 392 kts | 303° |
| 2026-04-24 19:27 | -34.95768 | -57.97351 | 22443 ft | 385 kts | 290° |
| 2026-04-24 19:27 | -34.94946 | -58.00441 | 21897 ft | 380 kts | 286° |
| 2026-04-24 19:27 | -34.94233 | -58.03523 | 21325 ft | 376 kts | 285° |
| 2026-04-24 19:28 | -34.93554 | -58.06548 | 20784 ft | 373 kts | 285° |
| 2026-04-24 19:28 | -34.92869 | -58.09582 | 20247 ft | 370 kts | 285° |
| 2026-04-24 19:28 | -34.92178 | -58.12591 | 19718 ft | 367 kts | 285° |
| 2026-04-24 19:28 | -34.91484 | -58.15568 | 19187 ft | 364 kts | 285° |
| 2026-04-24 19:29 | -34.90091 | -58.21466 | 18121 ft | 360 kts | 285° |
| 2026-04-24 19:29 | -34.89395 | -58.24387 | 17533 ft | 358 kts | 285° |
| 2026-04-24 19:29 | -34.88702 | -58.27291 | 16988 ft | 356 kts | 285° |
| 2026-04-24 19:30 | -34.88014 | -58.30172 | 16452 ft | 353 kts | 285° |
| 2026-04-24 19:30 | -34.87328 | -58.33041 | 15933 ft | 351 kts | 285° |
| 2026-04-24 19:30 | -34.86645 | -58.35891 | 15421 ft | 349 kts | 285° |
| 2026-04-24 19:30 | -34.85966 | -58.38728 | 14915 ft | 348 kts | 285° |
| 2026-04-24 19:31 | -34.85289 | -58.41549 | 14412 ft | 347 kts | 285° |
| 2026-04-24 19:31 | -34.84613 | -58.44365 | 13907 ft | 346 kts | 285° |
| 2026-04-24 19:31 | -34.83945 | -58.47143 | 13348 ft | 346 kts | 285° |
| 2026-04-24 19:31 | -34.83271 | -58.49943 | 12816 ft | 344 kts | 285° |
| 2026-04-24 19:32 | -34.82458 | -58.52671 | 12283 ft | 344 kts | 298° |
| 2026-04-24 19:32 | -34.81011 | -58.54975 | 11696 ft | 347 kts | 316° |
| 2026-04-24 19:32 | -34.79155 | -58.56861 | 11171 ft | 346 kts | 320° |
| 2026-04-24 19:32 | -34.77287 | -58.58656 | 10945 ft | 337 kts | 320° |
| 2026-04-24 19:33 | -34.75473 | -58.60389 | 10768 ft | 326 kts | 320° |
| 2026-04-24 19:33 | -34.73724 | -58.62068 | 10620 ft | 316 kts | 320° |
| 2026-04-24 19:33 | -34.72029 | -58.63707 | 10485 ft | 306 kts | 320° |
| 2026-04-24 19:33 | -34.70393 | -58.65295 | 10360 ft | 297 kts | 320° |
| 2026-04-24 19:34 | -34.68803 | -58.66843 | 10235 ft | 288 kts | 320° |
| 2026-04-24 19:34 | -34.67279 | -58.68330 | 10114 ft | 280 kts | 320° |
| 2026-04-24 19:34 | -34.65779 | -58.69793 | 9973 ft | 273 kts | 320° |
| 2026-04-24 19:34 | -34.64298 | -58.71239 | 9662 ft | 273 kts | 320° |
| 2026-04-24 19:35 | -34.62823 | -58.72679 | 9379 ft | 271 kts | 320° |
| 2026-04-24 19:35 | -34.61356 | -58.74109 | 9094 ft | 269 kts | 320° |
| 2026-04-24 19:35 | -34.59897 | -58.75530 | 8813 ft | 268 kts | 320° |
| 2026-04-24 19:35 | -34.58444 | -58.76944 | 8532 ft | 267 kts | 320° |
| 2026-04-24 19:36 | -34.56958 | -58.78286 | 8240 ft | 267 kts | 332° |
| 2026-04-24 19:36 | -34.55179 | -58.78898 | 7959 ft | 268 kts | 355° |
| 2026-04-24 19:36 | -34.53323 | -58.78784 | 7692 ft | 267 kts | 4° |
| 2026-04-24 19:36 | -34.51474 | -58.78542 | 7419 ft | 267 kts | 5° |
| 2026-04-24 19:37 | -34.50248 | -58.78377 | 7232 ft | 267 kts | 5° |
| 2026-04-24 19:37 | -34.48403 | -58.78136 | 6955 ft | 266 kts | 4° |
| 2026-04-24 19:37 | -34.46559 | -58.77905 | 6668 ft | 266 kts | 4° |
| 2026-04-24 19:37 | -34.44115 | -58.77610 | 6294 ft | 266 kts | 4° |
| 2026-04-24 19:38 | -34.42270 | -58.77390 | 5992 ft | 266 kts | 4° |
| 2026-04-24 19:38 | -34.41022 | -58.77241 | 5792 ft | 266 kts | 5° |
| 2026-04-24 19:38 | -34.39229 | -58.76731 | 5482 ft | 268 kts | 26° |
| 2026-04-24 19:38 | -34.37828 | -58.75317 | 5207 ft | 269 kts | 52° |
| 2026-04-24 19:39 | -34.37099 | -58.73247 | 4955 ft | 270 kts | 79° |
| 2026-04-24 19:39 | -34.37233 | -58.70998 | 4706 ft | 271 kts | 107° |
| 2026-04-24 19:39 | -34.38168 | -58.69034 | 4471 ft | 271 kts | 130° |
| 2026-04-24 19:39 | -34.39466 | -58.67409 | 4311 ft | 265 kts | 133° |
| 2026-04-24 19:40 | -34.40762 | -58.65837 | 4081 ft | 263 kts | 133° |
| 2026-04-24 19:40 | -34.42031 | -58.64283 | 3973 ft | 254 kts | 133° |
| 2026-04-24 19:40 | -34.43227 | -58.62805 | 3894 ft | 236 kts | 133° |
| 2026-04-24 19:40 | -34.44332 | -58.61436 | 3778 ft | 219 kts | 132° |
| 2026-04-24 19:41 | -34.45354 | -58.60167 | 3660 ft | 201 kts | 132° |
| 2026-04-24 19:41 | -34.46250 | -58.58957 | 3493 ft | 186 kts | 123° |
| 2026-04-24 19:41 | -34.46972 | -58.57677 | 3186 ft | 182 kts | 120° |
| 2026-04-24 19:41 | -34.47669 | -58.56402 | 2764 ft | 186 kts | 121° |
| 2026-04-24 19:42 | -34.48378 | -58.55112 | 2555 ft | 180 kts | 121° |
| 2026-04-24 19:42 | -34.49061 | -58.53882 | 2364 ft | 169 kts | 122° |
| 2026-04-24 19:42 | -34.49705 | -58.52728 | 2104 ft | 160 kts | 121° |
| 2026-04-24 19:42 | -34.50318 | -58.51627 | 1802 ft | 154 kts | 121° |
| 2026-04-24 19:43 | -34.50927 | -58.50548 | 1669 ft | 158 kts | 122° |
| 2026-04-24 19:43 | -34.51557 | -58.49438 | 1403 ft | 155 kts | 121° |
| 2026-04-24 19:43 | -34.52153 | -58.48366 | 1158 ft | 150 kts | 121° |
| 2026-04-24 19:43 | -34.52724 | -58.47338 | 985 ft | 148 kts | 120° |
| 2026-04-24 19:44 | -34.53301 | -58.46295 | 773 ft | 148 kts | 121° |
| 2026-04-24 19:44 | -34.53867 | -58.45274 | 589 ft | 146 kts | 122° |
| 2026-04-24 19:44 | -34.54434 | -58.44253 | 389 ft | 147 kts | 123° |
| 2026-04-24 19:44 | -34.55000 | -58.43235 | 211 ft | 144 kts | 122° |
| 2026-04-24 19:45 | -34.55551 | -58.42243 | 29 ft | 133 kts | 123° |
| 2026-04-24 19:45 | -34.55975 | -58.41478 | 26 ft | 80 kts | 124° |
| 2026-04-24 19:45 | -34.56155 | -58.41154 | 27 ft | 12 kts | 124° |
| 2026-04-24 19:45 | -34.56208 | -58.41052 | 27 ft | 10 kts | 125° |
| 2026-04-24 19:46 | -34.56212 | -58.41034 | 26 ft | 2 kts | 78° |
| 2026-04-24 19:46 | -34.56168 | -58.40995 | 26 ft | 16 kts | 40° |
| 2026-04-24 19:46 | -34.56131 | -58.40974 | 29 ft | 8 kts | 331° |
| 2026-04-24 19:46 | -34.56085 | -58.41033 | 26 ft | 10 kts | 322° |
| 2026-04-24 19:47 | -34.55997 | -58.41058 | 26 ft | 16 kts | 335° |
| 2026-04-24 19:47 | -34.55918 | -58.41152 | 28 ft | 13 kts | 303° |
| 2026-04-24 19:47 | -34.55863 | -58.41241 | 26 ft | 14 kts | 308° |
| 2026-04-24 19:47 | -34.55822 | -58.41278 | 27 ft | 0 kts | 16° |
| 2026-04-24 19:48 | -34.55806 | -58.41252 | 26 ft | 0 kts | 45° |